createdAt,value
2023-05-05T00:02:16.486Z,101248.28
2023-05-05T00:04:43.081Z,101247.97
2023-05-05T00:07:09.838Z,101245.53
2023-05-05T00:09:36.293Z,101243.44
2023-05-05T00:12:03.009Z,101252.78
2023-05-05T00:14:29.613Z,101242.66
2023-05-05T00:16:56.662Z,101254.97
2023-05-05T00:19:23.330Z,101242.94
2023-05-05T00:21:49.983Z,101242.00
2023-05-05T00:24:16.828Z,101237.41
2023-05-05T00:26:43.422Z,101248.28
2023-05-05T00:29:10.174Z,101250.50
2023-05-05T00:31:37.752Z,101253.34
2023-05-05T00:34:04.664Z,101254.38
2023-05-05T00:36:31.447Z,101245.53
2023-05-05T00:38:58.022Z,101256.94
2023-05-05T00:41:24.851Z,101258.47
2023-05-05T00:43:52.478Z,101256.06
2023-05-05T00:46:25.269Z,101258.16
2023-05-05T00:48:53.517Z,101253.91
2023-05-05T00:51:21.124Z,101264.69
2023-05-05T00:53:48.593Z,101262.09
2023-05-05T00:56:20.840Z,101258.50
2023-05-05T00:58:48.108Z,101253.91
2023-05-05T01:01:15.765Z,101257.94
2023-05-05T01:03:42.657Z,101247.72
2023-05-05T01:06:28.075Z,101254.06
2023-05-05T01:09:02.113Z,101258.59
2023-05-05T01:11:58.193Z,101260.28
2023-05-05T01:14:37.130Z,101257.88
2023-05-05T01:17:24.411Z,101255.88
2023-05-05T01:19:54.637Z,101269.03
2023-05-05T01:22:27.260Z,101261.72
2023-05-05T01:25:21.825Z,101250.97
2023-05-05T01:28:24.189Z,101254.84
2023-05-05T01:31:09.071Z,101248.06
2023-05-05T01:33:44.331Z,101241.84
2023-05-05T01:36:22.767Z,101250.72
2023-05-05T01:38:56.505Z,101257.13
2023-05-05T01:41:32.037Z,101262.34
2023-05-05T01:44:01.229Z,101262.06
2023-05-05T01:46:27.867Z,101257.25
2023-05-05T01:48:56.967Z,101265.31
2023-05-05T01:51:25.132Z,101264.47
2023-05-05T01:53:54.397Z,101270.84
2023-05-05T01:56:23.909Z,101270.84
2023-05-05T01:58:52.470Z,101268.16
2023-05-05T02:01:22.361Z,101266.53
2023-05-05T02:03:51.112Z,101262.00
2023-05-05T02:06:20.891Z,101259.41
2023-05-05T02:08:50.032Z,101276.91
2023-05-05T02:11:17.623Z,101270.09
2023-05-05T02:13:45.297Z,101272.31
2023-05-05T02:16:16.730Z,101270.84
2023-05-05T02:18:45.978Z,101273.91
2023-05-05T02:21:14.259Z,101270.19
2023-05-05T02:23:40.933Z,101280.63
2023-05-05T02:26:11.476Z,101277.41
2023-05-05T02:28:46.607Z,101284.59
2023-05-05T02:31:14.638Z,101284.03
2023-05-05T02:33:43.101Z,101284.59
2023-05-05T02:36:22.646Z,101295.34
2023-05-05T02:38:58.078Z,101288.72
2023-05-05T02:41:28.923Z,101295.41
2023-05-05T02:43:58.401Z,101290.97
2023-05-05T02:46:27.426Z,101292.69
2023-05-05T02:48:54.752Z,101294.16
2023-05-05T02:51:21.379Z,101288.72
2023-05-05T02:53:48.097Z,101294.25
2023-05-05T02:56:40.607Z,101287.47
2023-05-05T02:59:26.413Z,101281.00
2023-05-05T03:02:02.640Z,101291.03
2023-05-05T03:04:41.815Z,101286.59
2023-05-05T03:07:26.428Z,101295.50
2023-05-05T03:10:06.526Z,101293.97
2023-05-05T03:12:47.697Z,101290.72
2023-05-05T03:15:25.852Z,101297.16
2023-05-05T03:17:54.051Z,101297.38
2023-05-05T03:20:22.143Z,101295.16
2023-05-05T03:22:51.238Z,101302.03
2023-05-05T03:25:17.960Z,101293.38
2023-05-05T03:27:44.661Z,101293.41
2023-05-05T03:30:14.593Z,101297.31
2023-05-05T03:32:47.437Z,101295.56
2023-05-05T03:35:14.349Z,101302.88
2023-05-05T03:37:41.061Z,101317.50
2023-05-05T03:40:08.455Z,101316.34
2023-05-05T03:42:35.262Z,101317.09
2023-05-05T03:45:02.140Z,101314.69
2023-05-05T03:47:28.804Z,101314.38
2023-05-05T03:49:56.886Z,101318.47
2023-05-05T03:52:23.413Z,101313.97
2023-05-05T03:54:50.204Z,101318.38
2023-05-05T03:57:18.008Z,101323.34
2023-05-05T03:59:44.760Z,101327.19
2023-05-05T04:02:11.498Z,101325.53
2023-05-05T04:04:38.126Z,101317.84
2023-05-05T04:07:04.671Z,101323.56
2023-05-05T04:09:32.143Z,101322.81
2023-05-05T04:11:58.946Z,101312.97
2023-05-05T04:14:25.591Z,101318.34
2023-05-05T04:16:52.519Z,101326.69
2023-05-05T04:19:19.509Z,101336.88
2023-05-05T04:21:46.574Z,101344.44
2023-05-05T04:24:13.705Z,101343.16
2023-05-05T04:26:40.522Z,101345.56
2023-05-05T04:29:07.096Z,101346.53
2023-05-05T04:31:33.767Z,101349.47
2023-05-05T04:34:00.731Z,101337.66
2023-05-05T04:36:27.520Z,101345.22
2023-05-05T04:38:54.827Z,101341.78
2023-05-05T04:41:21.654Z,101327.31
2023-05-05T04:43:49.091Z,101335.50
2023-05-05T04:46:15.785Z,101336.09
2023-05-05T04:48:42.701Z,101329.69
2023-05-05T04:51:09.512Z,101339.06
2023-05-05T04:53:37.358Z,101329.84
2023-05-05T04:56:04.302Z,101338.84
2023-05-05T04:58:31.248Z,101328.69
2023-05-05T05:00:58.575Z,101332.69
2023-05-05T05:03:25.513Z,101336.53
2023-05-05T05:05:53.587Z,101329.75
2023-05-05T05:08:20.375Z,101345.25
2023-05-05T05:10:47.023Z,101334.94
2023-05-05T05:13:13.915Z,101326.16
2023-05-05T05:15:41.038Z,101323.66
2023-05-05T05:18:07.901Z,101320.84
2023-05-05T05:20:34.754Z,101315.66
2023-05-05T05:23:02.313Z,101310.84
2023-05-05T05:25:33.329Z,101329.91
2023-05-05T05:28:09.435Z,101332.59
2023-05-05T05:30:39.586Z,101340.56
2023-05-05T05:33:08.237Z,101348.41
2023-05-05T05:35:36.959Z,101347.94
2023-05-05T05:38:04.330Z,101350.38
2023-05-05T05:40:31.643Z,101345.06
2023-05-05T05:42:59.419Z,101362.38
2023-05-05T05:45:27.272Z,101360.13
2023-05-05T05:47:56.485Z,101359.63
2023-05-05T05:50:27.728Z,101378.34
2023-05-05T05:52:56.054Z,101377.25
2023-05-05T05:55:24.767Z,101381.53
2023-05-05T05:57:52.949Z,101383.97
2023-05-05T06:00:20.740Z,101385.84
2023-05-05T06:02:54.353Z,101380.47
2023-05-05T06:05:25.050Z,101392.56
2023-05-05T06:07:52.659Z,101401.31
2023-05-05T06:12:54.126Z,101397.94
2023-05-05T06:15:21.137Z,101397.88
2023-05-05T06:17:48.090Z,101418.19
2023-05-05T06:20:14.900Z,101407.41
2023-05-05T06:22:41.677Z,101414.28
2023-05-05T06:25:08.916Z,101405.22
2023-05-05T06:27:36.694Z,101424.31
2023-05-05T06:30:03.799Z,101416.91
2023-05-05T06:32:30.667Z,101418.53
2023-05-05T06:34:57.313Z,101409.75
2023-05-05T06:37:24.312Z,101413.66
2023-05-05T06:39:51.026Z,101419.75
2023-05-05T06:42:17.999Z,101418.06
2023-05-05T06:44:45.760Z,101417.41
2023-05-05T06:47:12.667Z,101421.78
2023-05-05T06:49:39.470Z,101415.59
2023-05-05T06:52:08.235Z,101420.34
2023-05-05T06:54:35.005Z,101427.28
2023-05-05T06:57:01.828Z,101424.41
2023-05-05T06:59:28.419Z,101422.69
2023-05-05T07:01:55.177Z,101428.34
2023-05-05T07:04:21.755Z,101427.59
2023-05-05T07:06:48.740Z,101428.78
2023-05-05T07:09:17.101Z,101430.09
2023-05-05T07:11:44.397Z,101433.28
2023-05-05T07:14:11.393Z,101424.59
2023-05-05T07:16:38.780Z,101424.50
2023-05-05T07:19:06.254Z,101434.91
2023-05-05T07:21:36.708Z,101432.88
2023-05-05T07:24:04.009Z,101426.34
2023-05-05T07:26:30.938Z,101419.28
2023-05-05T07:28:58.888Z,101427.13
2023-05-05T07:31:26.502Z,101423.13
2023-05-05T07:33:53.464Z,101427.81
2023-05-05T07:36:20.491Z,101430.28
2023-05-05T07:38:47.767Z,101433.50
2023-05-05T07:41:14.466Z,101425.75
2023-05-05T07:43:44.171Z,101415.00
2023-05-05T07:46:11.923Z,101410.00
2023-05-05T07:48:41.551Z,101405.84
2023-05-05T07:51:09.357Z,101419.66
2023-05-05T07:53:36.553Z,101422.19
2023-05-05T07:56:03.788Z,101424.34
2023-05-05T07:58:30.846Z,101419.53
2023-05-05T08:00:57.919Z,101412.97
2023-05-05T08:03:25.110Z,101426.50
2023-05-05T08:06:05.827Z,101421.38
2023-05-05T08:08:32.893Z,101432.09
2023-05-05T08:10:59.506Z,101423.38
2023-05-05T08:13:26.296Z,101422.69
2023-05-05T08:15:53.662Z,101433.25
2023-05-05T08:18:20.351Z,101438.56
2023-05-05T08:20:47.008Z,101442.84
2023-05-05T08:23:13.683Z,101433.31
2023-05-05T08:25:40.888Z,101431.47
2023-05-05T08:28:07.746Z,101427.78
2023-05-05T08:30:34.834Z,101432.03
2023-05-05T08:33:01.887Z,101436.28
2023-05-05T08:35:28.797Z,101436.28
2023-05-05T08:37:58.151Z,101426.44
2023-05-05T08:40:33.807Z,101446.75
2023-05-05T08:43:01.452Z,101435.28
2023-05-05T08:45:29.356Z,101443.16
2023-05-05T08:48:04.172Z,101442.06
2023-05-05T08:50:32.294Z,101447.78
2023-05-05T08:53:10.685Z,101439.13
2023-05-05T08:55:52.803Z,101442.59
2023-05-05T08:58:20.195Z,101442.59
2023-05-05T09:00:47.183Z,101436.16
2023-05-05T09:03:16.155Z,101438.81
2023-05-05T09:05:44.553Z,101432.81
2023-05-05T09:08:12.973Z,101441.56
2023-05-05T09:10:41.987Z,101436.34
2023-05-05T09:13:09.204Z,101438.88
2023-05-05T09:15:38.822Z,101433.72
2023-05-05T09:18:10.260Z,101434.63
2023-05-05T09:20:41.217Z,101443.25
2023-05-05T09:23:11.228Z,101438.78
2023-05-05T09:25:41.459Z,101448.34
2023-05-05T09:28:16.672Z,101447.66
2023-05-05T09:30:47.627Z,101433.97
2023-05-05T09:33:14.480Z,101439.09
2023-05-05T09:35:53.613Z,101440.03
2023-05-05T09:38:21.691Z,101433.00
2023-05-05T09:40:53.398Z,101448.56
2023-05-05T09:43:22.680Z,101439.44
2023-05-05T09:45:51.077Z,101433.25
2023-05-05T09:48:34.994Z,101424.16
2023-05-05T09:51:01.968Z,101429.19
2023-05-05T09:53:39.136Z,101431.69
2023-05-05T09:56:06.920Z,101451.59
2023-05-05T09:58:33.885Z,101455.72
2023-05-05T10:01:00.754Z,101458.59
2023-05-05T10:03:27.634Z,101457.78
2023-05-05T10:05:56.824Z,101454.38
2023-05-05T10:08:27.066Z,101451.47
2023-05-05T10:10:54.904Z,101452.53
2023-05-05T10:13:23.847Z,101442.19
2023-05-05T10:15:52.860Z,101447.28
2023-05-05T10:18:27.457Z,101458.53
2023-05-05T10:20:59.557Z,101454.44
2023-05-05T10:23:48.412Z,101460.69
2023-05-05T10:26:17.355Z,101466.19
2023-05-05T10:28:49.198Z,101464.94
2023-05-05T10:31:26.472Z,101490.09
2023-05-05T10:34:00.421Z,101515.22
2023-05-05T10:36:27.899Z,101516.13
2023-05-05T10:38:59.882Z,101515.72
2023-05-05T10:41:26.974Z,101513.75
2023-05-05T10:43:56.573Z,101515.88
2023-05-05T10:46:25.563Z,101524.22
2023-05-05T10:49:23.249Z,101509.78
2023-05-05T10:51:59.733Z,101518.47
2023-05-05T10:55:07.654Z,101514.09
2023-05-05T10:57:39.131Z,101515.91
2023-05-05T11:00:08.782Z,101532.41
2023-05-05T11:02:36.158Z,101523.91
2023-05-05T11:05:21.034Z,101531.78
2023-05-05T11:07:50.062Z,101527.97
2023-05-05T11:10:20.886Z,101523.53
2023-05-05T11:12:59.401Z,101530.41
2023-05-05T11:15:26.055Z,101511.88
2023-05-05T11:17:54.079Z,101509.09
2023-05-05T11:20:39.753Z,101510.19
2023-05-05T11:23:06.602Z,101506.34
2023-05-05T11:25:38.583Z,101493.72
2023-05-05T11:28:09.684Z,101491.81
2023-05-05T11:30:59.828Z,101490.56
2023-05-05T11:33:37.068Z,101482.50
2023-05-05T11:36:07.772Z,101473.31
2023-05-05T11:38:49.810Z,101475.34
2023-05-05T11:41:19.840Z,101477.94
2023-05-05T11:43:46.465Z,101476.19
2023-05-05T11:46:14.828Z,101473.25
2023-05-05T11:48:47.949Z,101463.00
2023-05-05T11:51:17.056Z,101466.63
2023-05-05T11:53:44.258Z,101472.88
2023-05-05T11:56:12.243Z,101473.22
2023-05-05T11:58:39.019Z,101466.28
2023-05-05T12:01:07.124Z,101474.00
2023-05-05T12:03:40.770Z,101481.03
2023-05-05T12:06:09.980Z,101473.94
2023-05-05T12:08:37.931Z,101469.69
2023-05-05T12:11:06.787Z,101455.53
2023-05-05T12:13:33.418Z,101461.34
2023-05-05T12:16:14.489Z,101461.81
2023-05-05T12:18:42.148Z,101465.25
2023-05-05T12:21:14.710Z,101469.19
2023-05-05T12:23:41.338Z,101472.47
2023-05-05T12:26:08.083Z,101480.53
2023-05-05T12:28:48.481Z,101470.28
2023-05-05T12:31:15.977Z,101463.63
2023-05-05T12:33:43.129Z,101449.25
2023-05-05T12:36:12.175Z,101445.75
2023-05-05T12:38:39.155Z,101456.41
2023-05-05T12:41:05.933Z,101458.44
2023-05-05T12:43:36.820Z,101467.75
2023-05-05T12:46:12.760Z,101471.31
2023-05-05T12:48:42.756Z,101479.34
2023-05-05T12:51:21.282Z,101485.09
2023-05-05T12:53:50.011Z,101492.34
2023-05-05T12:56:34.233Z,101500.59
2023-05-05T12:59:02.477Z,101502.00
2023-05-05T13:01:29.727Z,101514.59
2023-05-05T13:04:12.980Z,101523.34
2023-05-05T13:06:41.515Z,101513.94
2023-05-05T13:09:10.066Z,101506.84
2023-05-05T13:11:38.202Z,101512.31
2023-05-05T13:14:06.889Z,101508.72
2023-05-05T13:16:34.113Z,101507.47
2023-05-05T13:19:00.871Z,101502.25
2023-05-05T13:21:28.074Z,101500.22
2023-05-05T13:23:59.096Z,101506.19
2023-05-05T13:26:31.893Z,101501.69
2023-05-05T13:28:58.511Z,101498.91
2023-05-05T13:31:25.193Z,101503.06
2023-05-05T13:33:52.338Z,101510.19
2023-05-05T13:36:19.061Z,101503.72
2023-05-05T13:38:46.096Z,101494.38
2023-05-05T13:41:12.803Z,101494.47
2023-05-05T13:43:39.440Z,101487.66
2023-05-05T13:46:19.198Z,101485.59
2023-05-05T13:48:47.419Z,101476.41
2023-05-05T13:51:14.112Z,101476.25
2023-05-05T13:53:43.853Z,101464.00
2023-05-05T13:56:10.927Z,101463.41
2023-05-05T13:58:37.980Z,101459.63
2023-05-05T14:01:04.813Z,101450.06
2023-05-05T14:03:31.554Z,101455.97
2023-05-05T14:05:58.292Z,101445.84
2023-05-05T14:08:25.002Z,101447.41
2023-05-05T14:10:52.275Z,101455.50
2023-05-05T14:13:19.248Z,101451.28
2023-05-05T14:15:46.553Z,101450.34
2023-05-05T14:18:13.394Z,101449.97
2023-05-05T14:20:40.045Z,101443.06
2023-05-05T14:23:07.689Z,101434.88
2023-05-05T14:25:34.475Z,101431.25
2023-05-05T14:28:01.074Z,101440.19
2023-05-05T14:30:27.772Z,101431.53
2023-05-05T14:32:54.537Z,101443.59
2023-05-05T14:35:21.312Z,101440.97
2023-05-05T14:37:48.006Z,101434.09
2023-05-05T14:40:14.915Z,101431.91
2023-05-05T14:42:41.627Z,101437.72
2023-05-05T14:45:11.308Z,101431.69
2023-05-05T14:47:38.015Z,101441.16
2023-05-05T14:50:05.552Z,101436.41
2023-05-05T14:52:32.170Z,101432.00
2023-05-05T14:54:58.668Z,101431.25
2023-05-05T14:57:25.423Z,101435.97
2023-05-05T14:59:53.024Z,101436.84
2023-05-05T15:02:19.730Z,101430.59
2023-05-05T15:04:48.038Z,101429.59
2023-05-05T15:07:15.894Z,101422.19
2023-05-05T15:09:42.511Z,101419.75
2023-05-05T15:12:09.051Z,101423.63
2023-05-05T15:14:36.735Z,101412.28
2023-05-05T15:17:03.692Z,101415.84
2023-05-05T15:19:31.062Z,101401.19
2023-05-05T15:21:57.648Z,101408.91
2023-05-05T15:24:24.238Z,101399.69
2023-05-05T15:26:51.368Z,101411.13
2023-05-05T15:29:17.936Z,101416.63
2023-05-05T15:31:47.325Z,101412.03
2023-05-05T15:34:13.912Z,101413.53
2023-05-05T15:36:40.653Z,101409.13
2023-05-05T15:39:07.197Z,101413.66
2023-05-05T15:41:34.374Z,101409.38
2023-05-05T15:44:03.108Z,101408.47
2023-05-05T15:46:33.521Z,101405.72
2023-05-05T15:49:00.294Z,101411.13
2023-05-05T15:51:27.377Z,101409.16
2023-05-05T15:53:54.141Z,101401.06
2023-05-05T15:56:20.866Z,101408.69
2023-05-05T15:58:47.472Z,101405.66
2023-05-05T16:01:14.143Z,101407.84
2023-05-05T16:03:44.138Z,101397.16
2023-05-05T16:06:14.125Z,101392.53
2023-05-05T16:08:41.206Z,101399.09
2023-05-05T16:11:07.982Z,101403.38
2023-05-05T16:13:34.834Z,101387.19
2023-05-05T16:16:01.745Z,101400.88
2023-05-05T16:18:28.328Z,101404.91
2023-05-05T16:20:54.961Z,101406.94
2023-05-05T16:23:21.594Z,101394.44
2023-05-05T16:25:48.288Z,101405.94
2023-05-05T16:28:14.887Z,101398.63
2023-05-05T16:30:43.096Z,101399.88
2023-05-05T16:33:10.090Z,101394.22
2023-05-05T16:35:36.848Z,101399.28
2023-05-05T16:38:03.611Z,101409.03
2023-05-05T16:40:30.326Z,101415.28
2023-05-05T16:42:56.960Z,101407.66
2023-05-05T16:45:24.668Z,101401.19
2023-05-05T16:47:51.370Z,101407.28
2023-05-05T16:50:19.311Z,101413.81
2023-05-05T16:52:46.200Z,101392.91
2023-05-05T16:55:13.133Z,101397.25
2023-05-05T16:57:40.049Z,101397.22
2023-05-05T17:00:10.935Z,101404.53
2023-05-05T17:06:58.574Z,101387.38
2023-05-05T17:09:25.213Z,101407.06
2023-05-05T17:11:52.145Z,101409.38
2023-05-05T17:14:18.911Z,101399.47
2023-05-05T17:16:46.892Z,101394.97
2023-05-05T17:19:13.967Z,101387.31
2023-05-05T17:21:40.655Z,101377.88
2023-05-05T17:24:08.373Z,101390.63
2023-05-05T17:26:35.313Z,101375.94
2023-05-05T17:29:02.719Z,101389.66
2023-05-05T17:31:29.532Z,101392.69
2023-05-05T17:33:56.359Z,101382.88
2023-05-05T17:36:23.228Z,101380.19
2023-05-05T17:38:50.070Z,101382.41
2023-05-05T17:41:17.511Z,101385.25
2023-05-05T17:43:44.373Z,101381.03
2023-05-05T17:46:11.529Z,101372.81
2023-05-05T17:48:38.626Z,101371.53
2023-05-05T17:51:05.571Z,101366.59
2023-05-05T17:53:32.530Z,101372.75
2023-05-05T17:55:59.584Z,101359.28
2023-05-05T17:58:26.429Z,101372.97
2023-05-05T18:00:54.491Z,101373.00
2023-05-05T18:03:21.415Z,101377.44
2023-05-05T18:05:48.101Z,101358.81
2023-05-05T18:08:14.881Z,101380.63
2023-05-05T18:10:42.265Z,101376.78
2023-05-05T18:13:08.973Z,101396.91
2023-05-05T18:15:35.737Z,101395.13
2023-05-05T18:18:04.602Z,101401.81
2023-05-05T18:20:31.102Z,101399.00
2023-05-05T18:22:58.940Z,101406.25
2023-05-05T18:25:26.469Z,101400.09
2023-05-05T18:27:53.294Z,101400.13
2023-05-05T18:30:21.286Z,101407.28
2023-05-05T18:32:48.976Z,101406.66
2023-05-05T18:35:16.039Z,101413.84
2023-05-05T18:37:42.871Z,101399.56
2023-05-05T18:40:10.339Z,101411.69
2023-05-05T18:42:37.085Z,101414.22
2023-05-05T18:45:04.232Z,101403.59
2023-05-05T18:47:31.129Z,101414.56
2023-05-05T18:49:58.061Z,101416.09
2023-05-05T18:52:25.108Z,101419.41
2023-05-05T18:54:51.742Z,101423.31
2023-05-05T18:57:18.481Z,101426.28
2023-05-05T18:59:46.098Z,101422.47
2023-05-05T19:02:12.747Z,101435.16
2023-05-05T19:04:40.277Z,101430.50
2023-05-05T19:07:08.015Z,101438.47
2023-05-05T19:09:34.908Z,101431.72
2023-05-05T19:12:02.953Z,101432.34
2023-05-05T19:14:31.258Z,101426.31
2023-05-05T19:16:59.185Z,101434.59
2023-05-05T19:19:26.498Z,101419.97
2023-05-05T19:21:53.528Z,101436.19
2023-05-05T19:24:20.288Z,101443.31
2023-05-05T19:26:48.029Z,101428.84
2023-05-05T19:29:16.083Z,101428.50
2023-05-05T19:31:43.296Z,101431.91
2023-05-05T19:34:10.066Z,101436.81
2023-05-05T19:36:36.984Z,101444.41
2023-05-05T19:39:04.925Z,101441.06
2023-05-05T19:41:32.752Z,101447.16
2023-05-05T19:44:00.165Z,101450.97
2023-05-05T19:46:28.436Z,101457.06
2023-05-05T19:48:55.815Z,101447.34
2023-05-05T19:51:22.741Z,101447.84
2023-05-05T19:53:50.370Z,101453.50
2023-05-05T19:56:17.180Z,101464.91
2023-05-05T19:58:57.633Z,101473.94
2023-05-05T20:01:25.501Z,101478.34
2023-05-05T20:03:54.716Z,101458.47
2023-05-05T20:06:22.205Z,101461.38
2023-05-05T20:08:48.789Z,101462.56
2023-05-05T20:11:16.910Z,101450.91
2023-05-05T20:13:43.850Z,101445.81
2023-05-05T20:16:11.024Z,101453.00
2023-05-05T20:18:39.109Z,101455.41
2023-05-05T20:21:06.152Z,101461.75
2023-05-05T20:23:34.098Z,101461.75
2023-05-05T20:26:02.012Z,101457.03
2023-05-05T20:28:31.740Z,101457.28
2023-05-05T20:30:58.865Z,101464.31
2023-05-05T20:33:25.372Z,101464.16
2023-05-05T20:35:52.194Z,101463.34
2023-05-05T20:38:19.407Z,101465.19
2023-05-05T20:40:46.219Z,101466.59
2023-05-05T20:43:12.748Z,101466.31
2023-05-05T20:45:39.656Z,101454.34
2023-05-05T20:48:09.704Z,101464.38
2023-05-05T20:50:40.996Z,101464.91
2023-05-05T20:53:09.143Z,101472.47
2023-05-05T20:55:35.997Z,101468.34
2023-05-05T20:58:04.582Z,101461.03
2023-05-05T21:00:31.706Z,101458.34
2023-05-05T21:02:58.862Z,101457.16
2023-05-05T21:05:26.032Z,101444.41
2023-05-05T21:07:54.160Z,101444.84
2023-05-05T21:10:21.131Z,101443.06
2023-05-05T21:12:47.923Z,101450.56
2023-05-05T21:15:16.516Z,101465.88
2023-05-05T21:17:43.360Z,101453.97
2023-05-05T21:20:10.813Z,101440.59
2023-05-05T21:22:37.916Z,101434.69
2023-05-05T21:25:13.942Z,101455.13
2023-05-05T21:27:41.514Z,101444.50
2023-05-05T21:30:10.939Z,101450.53
2023-05-05T21:32:40.279Z,101441.53
2023-05-05T21:35:08.818Z,101453.50
2023-05-05T21:37:37.944Z,101442.59
2023-05-05T21:40:10.783Z,101446.13
2023-05-05T21:42:37.978Z,101444.06
2023-05-05T21:45:05.137Z,101452.75
2023-05-05T21:47:33.236Z,101435.53
2023-05-05T21:50:00.286Z,101445.53
2023-05-05T21:52:27.241Z,101448.97
2023-05-05T21:54:54.232Z,101449.25
2023-05-05T21:57:21.450Z,101443.50
2023-05-05T21:59:48.382Z,101450.63
2023-05-05T22:02:15.162Z,101440.16
2023-05-05T22:04:41.990Z,101441.97
2023-05-05T22:07:08.679Z,101436.56
2023-05-05T22:09:35.506Z,101435.09
2023-05-05T22:12:02.645Z,101431.19
2023-05-05T22:14:29.328Z,101431.06
2023-05-05T22:16:56.014Z,101435.97
2023-05-05T22:19:22.755Z,101429.41
2023-05-05T22:21:49.363Z,101431.91
2023-05-05T22:24:15.927Z,101432.22
2023-05-05T22:26:43.345Z,101418.00
2023-05-05T22:29:11.088Z,101428.16
2023-05-05T22:31:38.123Z,101424.84
2023-05-05T22:34:04.799Z,101427.72
2023-05-05T22:36:31.809Z,101429.66
2023-05-05T22:38:58.658Z,101433.06
2023-05-05T22:41:25.712Z,101430.31
2023-05-05T22:43:52.414Z,101430.00
2023-05-05T22:46:19.021Z,101427.25
2023-05-05T22:48:46.094Z,101426.75
2023-05-05T22:51:13.481Z,101427.84
2023-05-05T22:53:40.451Z,101432.69
2023-05-05T22:56:08.546Z,101427.25
2023-05-05T22:58:35.328Z,101434.63
2023-05-05T23:01:02.132Z,101432.97
2023-05-05T23:03:28.939Z,101434.81
2023-05-05T23:05:56.811Z,101427.88
2023-05-05T23:08:24.090Z,101425.03
2023-05-05T23:10:51.115Z,101424.88
2023-05-05T23:13:17.790Z,101429.47
2023-05-05T23:15:44.483Z,101427.09
2023-05-05T23:18:11.210Z,101427.22
2023-05-05T23:20:38.029Z,101426.97
2023-05-05T23:23:04.804Z,101415.47
2023-05-05T23:25:31.465Z,101422.97
2023-05-05T23:27:58.017Z,101423.56
2023-05-05T23:30:24.691Z,101417.75
2023-05-05T23:32:51.314Z,101421.91
2023-05-05T23:35:18.104Z,101418.81
2023-05-05T23:37:44.877Z,101420.66
2023-05-05T23:40:11.860Z,101422.50
2023-05-05T23:42:38.435Z,101417.53
2023-05-05T23:45:05.458Z,101417.38
2023-05-05T23:47:32.400Z,101416.94
2023-05-05T23:49:59.428Z,101419.53
2023-05-05T23:52:25.898Z,101413.41
2023-05-05T23:54:52.619Z,101415.22
2023-05-05T23:57:19.180Z,101408.81
2023-05-05T23:59:45.909Z,101410.28
